sensor_id;sensor_type;location;lat;lon;timestamp;temperature;humidity
15044;DHT22;7619;48.562;8.910;2022-10-16T00:01:47;14.10;99.90
15044;DHT22;7619;48.562;8.910;2022-10-16T00:04:16;14.10;99.90
15044;DHT22;7619;48.562;8.910;2022-10-16T00:06:45;14.00;99.90
15044;DHT22;7619;48.562;8.910;2022-10-16T00:09:14;14.00;99.90
15044;DHT22;7619;48.562;8.910;2022-10-16T00:11:43;13.90;99.90
15044;DHT22;7619;48.562;8.910;2022-10-16T00:14:13;13.80;99.90
15044;DHT22;7619;48.562;8.910;2022-10-16T00:16:42;13.80;99.90
15044;DHT22;7619;48.562;8.910;2022-10-16T00:19:12;13.70;99.90
15044;DHT22;7619;48.562;8.910;2022-10-16T00:21:41;13.70;99.90
15044;DHT22;7619;48.562;8.910;2022-10-16T00:24:10;13.70;99.90
15044;DHT22;7619;48.562;8.910;2022-10-16T00:26:39;13.60;99.90
15044;DHT22;7619;48.562;8.910;2022-10-16T00:29:09;13.60;99.90
15044;DHT22;7619;48.562;8.910;2022-10-16T00:31:38;13.60;99.90
15044;DHT22;7619;48.562;8.910;2022-10-16T00:34:06;13.60;99.90
15044;DHT22;7619;48.562;8.910;2022-10-16T00:36:35;13.60;99.90
15044;DHT22;7619;48.562;8.910;2022-10-16T00:39:04;13.60;99.90
15044;DHT22;7619;48.562;8.910;2022-10-16T00:41:34;13.50;99.90
15044;DHT22;7619;48.562;8.910;2022-10-16T00:44:40;13.50;99.90
15044;DHT22;7619;48.562;8.910;2022-10-16T00:46:37;13.50;99.90
15044;DHT22;7619;48.562;8.910;2022-10-16T00:49:09;13.40;99.90
15044;DHT22;7619;48.562;8.910;2022-10-16T00:51:40;13.30;99.90
15044;DHT22;7619;48.562;8.910;2022-10-16T00:54:13;13.20;99.90
15044;DHT22;7619;48.562;8.910;2022-10-16T00:56:42;13.20;99.90
15044;DHT22;7619;48.562;8.910;2022-10-16T00:59:15;13.20;99.90
15044;DHT22;7619;48.562;8.910;2022-10-16T01:01:44;13.10;99.90
15044;DHT22;7619;48.562;8.910;2022-10-16T01:04:13;13.10;99.90
15044;DHT22;7619;48.562;8.910;2022-10-16T01:06:49;13.10;99.90
15044;DHT22;7619;48.562;8.910;2022-10-16T01:12:40;13.10;99.90
15044;DHT22;7619;48.562;8.910;2022-10-16T01:15:15;13.10;99.90
15044;DHT22;7619;48.562;8.910;2022-10-16T01:17:47;13.10;99.90
15044;DHT22;7619;48.562;8.910;2022-10-16T01:20:24;13.10;99.90
15044;DHT22;7619;48.562;8.910;2022-10-16T01:23:06;13.20;99.90
15044;DHT22;7619;48.562;8.910;2022-10-16T01:25:46;13.10;99.90
15044;DHT22;7619;48.562;8.910;2022-10-16T01:28:17;13.20;99.90
15044;DHT22;7619;48.562;8.910;2022-10-16T01:30:47;13.20;99.90
15044;DHT22;7619;48.562;8.910;2022-10-16T01:33:20;13.20;99.90
15044;DHT22;7619;48.562;8.910;2022-10-16T01:35:52;13.30;99.90
15044;DHT22;7619;48.562;8.910;2022-10-16T01:38:24;13.40;99.90
15044;DHT22;7619;48.562;8.910;2022-10-16T01:40:56;13.40;99.90
15044;DHT22;7619;48.562;8.910;2022-10-16T01:43:26;13.30;99.90
15044;DHT22;7619;48.562;8.910;2022-10-16T01:45:57;13.30;99.90
15044;DHT22;7619;48.562;8.910;2022-10-16T01:48:27;13.30;99.90
15044;DHT22;7619;48.562;8.910;2022-10-16T01:51:01;13.30;99.90
15044;DHT22;7619;48.562;8.910;2022-10-16T01:53:30;13.40;99.90
15044;DHT22;7619;48.562;8.910;2022-10-16T01:56:00;13.40;99.90
15044;DHT22;7619;48.562;8.910;2022-10-16T01:58:31;13.40;99.90
15044;DHT22;7619;48.562;8.910;2022-10-16T02:01:03;13.30;99.90
15044;DHT22;7619;48.562;8.910;2022-10-16T02:03:33;13.30;99.90
15044;DHT22;7619;48.562;8.910;2022-10-16T02:06:03;13.30;99.90
15044;DHT22;7619;48.562;8.910;2022-10-16T02:08:32;13.30;99.90
15044;DHT22;7619;48.562;8.910;2022-10-16T02:11:01;13.30;99.90
15044;DHT22;7619;48.562;8.910;2022-10-16T02:13:33;13.20;99.90
15044;DHT22;7619;48.562;8.910;2022-10-16T02:16:02;13.20;99.90
15044;DHT22;7619;48.562;8.910;2022-10-16T02:18:31;13.20;99.90
15044;DHT22;7619;48.562;8.910;2022-10-16T02:21:02;13.20;99.90
15044;DHT22;7619;48.562;8.910;2022-10-16T02:23:37;13.20;99.90
15044;DHT22;7619;48.562;8.910;2022-10-16T02:28:48;13.10;99.90
15044;DHT22;7619;48.562;8.910;2022-10-16T02:31:21;13.20;99.90
15044;DHT22;7619;48.562;8.910;2022-10-16T02:33:50;13.20;99.90
15044;DHT22;7619;48.562;8.910;2022-10-16T02:36:20;13.20;99.90
15044;DHT22;7619;48.562;8.910;2022-10-16T02:38:49;13.10;99.90
15044;DHT22;7619;48.562;8.910;2022-10-16T02:41:17;13.10;99.90
15044;DHT22;7619;48.562;8.910;2022-10-16T02:43:46;13.10;99.90
15044;DHT22;7619;48.562;8.910;2022-10-16T02:46:17;13.10;99.90
15044;DHT22;7619;48.562;8.910;2022-10-16T02:48:47;13.10;99.90
15044;DHT22;7619;48.562;8.910;2022-10-16T02:51:16;13.10;99.90
15044;DHT22;7619;48.562;8.910;2022-10-16T02:53:44;13.10;99.90
15044;DHT22;7619;48.562;8.910;2022-10-16T02:56:13;13.00;99.90
15044;DHT22;7619;48.562;8.910;2022-10-16T02:58:42;13.10;99.90
15044;DHT22;7619;48.562;8.910;2022-10-16T03:01:11;13.10;99.90
15044;DHT22;7619;48.562;8.910;2022-10-16T03:03:41;13.10;99.90
15044;DHT22;7619;48.562;8.910;2022-10-16T03:06:10;13.10;99.90
15044;DHT22;7619;48.562;8.910;2022-10-16T03:08:39;13.20;99.90
15044;DHT22;7619;48.562;8.910;2022-10-16T03:11:08;13.20;99.90
15044;DHT22;7619;48.562;8.910;2022-10-16T03:13:37;13.20;99.90
15044;DHT22;7619;48.562;8.910;2022-10-16T03:16:06;13.20;99.90
15044;DHT22;7619;48.562;8.910;2022-10-16T03:18:35;13.20;99.90
15044;DHT22;7619;48.562;8.910;2022-10-16T03:21:04;13.10;99.90
15044;DHT22;7619;48.562;8.910;2022-10-16T03:23:32;13.10;99.90
15044;DHT22;7619;48.562;8.910;2022-10-16T03:26:01;13.10;99.90
15044;DHT22;7619;48.562;8.910;2022-10-16T03:28:30;13.10;99.90
15044;DHT22;7619;48.562;8.910;2022-10-16T03:30:59;13.10;99.90
15044;DHT22;7619;48.562;8.910;2022-10-16T03:33:27;13.10;99.90
15044;DHT22;7619;48.562;8.910;2022-10-16T03:35:57;13.10;99.90
15044;DHT22;7619;48.562;8.910;2022-10-16T03:38:25;13.10;99.90
15044;DHT22;7619;48.562;8.910;2022-10-16T03:40:54;13.10;99.90
15044;DHT22;7619;48.562;8.910;2022-10-16T03:43:23;13.10;99.90
15044;DHT22;7619;48.562;8.910;2022-10-16T03:45:52;13.10;99.90
15044;DHT22;7619;48.562;8.910;2022-10-16T03:48:20;13.10;99.90
15044;DHT22;7619;48.562;8.910;2022-10-16T03:50:49;13.10;99.90
15044;DHT22;7619;48.562;8.910;2022-10-16T03:53:19;13.10;99.90
15044;DHT22;7619;48.562;8.910;2022-10-16T03:55:48;13.10;99.90
15044;DHT22;7619;48.562;8.910;2022-10-16T03:58:16;13.10;99.90
15044;DHT22;7619;48.562;8.910;2022-10-16T04:00:47;13.30;99.90
15044;DHT22;7619;48.562;8.910;2022-10-16T04:03:16;13.20;99.90
15044;DHT22;7619;48.562;8.910;2022-10-16T04:05:46;13.10;99.90
15044;DHT22;7619;48.562;8.910;2022-10-16T04:08:15;13.10;99.90
15044;DHT22;7619;48.562;8.910;2022-10-16T04:10:44;13.00;99.90
15044;DHT22;7619;48.562;8.910;2022-10-16T04:13:13;13.00;99.90
15044;DHT22;7619;48.562;8.910;2022-10-16T04:15:42;13.00;99.90
15044;DHT22;7619;48.562;8.910;2022-10-16T04:18:12;13.00;99.90
15044;DHT22;7619;48.562;8.910;2022-10-16T04:23:17;13.10;99.90
15044;DHT22;7619;48.562;8.910;2022-10-16T04:28:23;13.30;99.90
15044;DHT22;7619;48.562;8.910;2022-10-16T04:30:52;13.20;99.90
15044;DHT22;7619;48.562;8.910;2022-10-16T04:33:21;13.20;99.90
15044;DHT22;7619;48.562;8.910;2022-10-16T04:35:56;13.10;99.90
15044;DHT22;7619;48.562;8.910;2022-10-16T04:38:25;13.10;99.90
15044;DHT22;7619;48.562;8.910;2022-10-16T04:40:54;13.20;99.90
15044;DHT22;7619;48.562;8.910;2022-10-16T04:45:59;13.50;99.90
15044;DHT22;7619;48.562;8.910;2022-10-16T04:48:29;13.50;99.90
15044;DHT22;7619;48.562;8.910;2022-10-16T04:50:57;13.50;99.90
15044;DHT22;7619;48.562;8.910;2022-10-16T04:53:26;13.50;99.90
15044;DHT22;7619;48.562;8.910;2022-10-16T04:55:55;13.50;99.90
15044;DHT22;7619;48.562;8.910;2022-10-16T04:58:24;13.50;99.90
15044;DHT22;7619;48.562;8.910;2022-10-16T05:00:53;13.50;99.90
15044;DHT22;7619;48.562;8.910;2022-10-16T05:03:22;13.50;99.90
15044;DHT22;7619;48.562;8.910;2022-10-16T05:05:51;13.50;99.90
15044;DHT22;7619;48.562;8.910;2022-10-16T05:08:20;13.70;99.90
15044;DHT22;7619;48.562;8.910;2022-10-16T05:15:53;13.90;99.90
15044;DHT22;7619;48.562;8.910;2022-10-16T05:18:21;13.80;99.90
15044;DHT22;7619;48.562;8.910;2022-10-16T05:20:50;13.80;99.90
15044;DHT22;7619;48.562;8.910;2022-10-16T05:23:19;13.70;99.90
15044;DHT22;7619;48.562;8.910;2022-10-16T05:25:54;13.60;99.90
15044;DHT22;7619;48.562;8.910;2022-10-16T05:28:25;13.50;99.90
15044;DHT22;7619;48.562;8.910;2022-10-16T05:30:54;13.50;99.90
15044;DHT22;7619;48.562;8.910;2022-10-16T05:33:24;13.50;99.90
15044;DHT22;7619;48.562;8.910;2022-10-16T05:35:54;13.50;99.90
15044;DHT22;7619;48.562;8.910;2022-10-16T05:38:22;13.50;99.90
15044;DHT22;7619;48.562;8.910;2022-10-16T05:40:54;13.50;99.90
15044;DHT22;7619;48.562;8.910;2022-10-16T05:45:56;13.60;99.90
15044;DHT22;7619;48.562;8.910;2022-10-16T05:48:26;13.60;99.90
15044;DHT22;7619;48.562;8.910;2022-10-16T05:50:59;13.60;99.90
15044;DHT22;7619;48.562;8.910;2022-10-16T05:53:29;13.70;99.90
15044;DHT22;7619;48.562;8.910;2022-10-16T05:58:29;13.90;99.90
15044;DHT22;7619;48.562;8.910;2022-10-16T06:00:59;14.00;99.90
15044;DHT22;7619;48.562;8.910;2022-10-16T06:03:28;14.10;99.90
15044;DHT22;7619;48.562;8.910;2022-10-16T06:05:57;14.20;99.90
15044;DHT22;7619;48.562;8.910;2022-10-16T06:08:26;14.20;99.90
15044;DHT22;7619;48.562;8.910;2022-10-16T06:11:02;14.40;99.90
15044;DHT22;7619;48.562;8.910;2022-10-16T06:13:31;14.40;99.90
15044;DHT22;7619;48.562;8.910;2022-10-16T06:18:30;14.50;99.90
15044;DHT22;7619;48.562;8.910;2022-10-16T06:20:59;14.50;99.90
15044;DHT22;7619;48.562;8.910;2022-10-16T06:23:29;14.50;99.90
15044;DHT22;7619;48.562;8.910;2022-10-16T06:26:06;14.70;99.90
15044;DHT22;7619;48.562;8.910;2022-10-16T06:28:35;14.70;99.90
15044;DHT22;7619;48.562;8.910;2022-10-16T06:31:05;14.70;99.90
15044;DHT22;7619;48.562;8.910;2022-10-16T06:33:35;14.90;99.90
15044;DHT22;7619;48.562;8.910;2022-10-16T06:36:06;15.10;99.90
15044;DHT22;7619;48.562;8.910;2022-10-16T06:38:36;15.20;99.90
15044;DHT22;7619;48.562;8.910;2022-10-16T06:43:34;15.20;99.90
15044;DHT22;7619;48.562;8.910;2022-10-16T06:46:05;15.30;99.90
15044;DHT22;7619;48.562;8.910;2022-10-16T06:48:35;15.30;99.90
15044;DHT22;7619;48.562;8.910;2022-10-16T06:51:06;15.20;99.90
15044;DHT22;7619;48.562;8.910;2022-10-16T06:53:37;15.20;99.90
15044;DHT22;7619;48.562;8.910;2022-10-16T06:56:10;15.30;99.90
15044;DHT22;7619;48.562;8.910;2022-10-16T06:58:40;15.40;99.90
15044;DHT22;7619;48.562;8.910;2022-10-16T07:01:10;15.30;99.90
15044;DHT22;7619;48.562;8.910;2022-10-16T07:03:40;15.50;99.90
15044;DHT22;7619;48.562;8.910;2022-10-16T07:08:40;15.70;99.90
15044;DHT22;7619;48.562;8.910;2022-10-16T07:11:11;15.90;99.90
15044;DHT22;7619;48.562;8.910;2022-10-16T07:13:42;15.90;99.90
15044;DHT22;7619;48.562;8.910;2022-10-16T07:16:13;16.00;99.90
15044;DHT22;7619;48.562;8.910;2022-10-16T07:18:43;15.90;99.90
15044;DHT22;7619;48.562;8.910;2022-10-16T07:21:15;16.00;99.90
15044;DHT22;7619;48.562;8.910;2022-10-16T07:23:45;15.80;99.90
15044;DHT22;7619;48.562;8.910;2022-10-16T07:26:13;15.80;99.90
15044;DHT22;7619;48.562;8.910;2022-10-16T07:28:44;15.80;99.90
15044;DHT22;7619;48.562;8.910;2022-10-16T07:31:14;15.90;99.90
15044;DHT22;7619;48.562;8.910;2022-10-16T07:36:13;15.90;99.90
15044;DHT22;7619;48.562;8.910;2022-10-16T07:38:43;15.90;99.90
15044;DHT22;7619;48.562;8.910;2022-10-16T07:41:14;16.00;99.90
15044;DHT22;7619;48.562;8.910;2022-10-16T07:43:47;16.20;99.90
15044;DHT22;7619;48.562;8.910;2022-10-16T07:48:45;16.30;99.90
15044;DHT22;7619;48.562;8.910;2022-10-16T07:51:16;16.30;99.90
15044;DHT22;7619;48.562;8.910;2022-10-16T07:53:45;16.40;99.90
15044;DHT22;7619;48.562;8.910;2022-10-16T07:56:15;16.40;99.90
15044;DHT22;7619;48.562;8.910;2022-10-16T07:58:44;16.40;99.90
15044;DHT22;7619;48.562;8.910;2022-10-16T08:01:15;16.60;99.90
15044;DHT22;7619;48.562;8.910;2022-10-16T08:03:45;16.50;99.90
15044;DHT22;7619;48.562;8.910;2022-10-16T08:06:15;16.70;99.90
15044;DHT22;7619;48.562;8.910;2022-10-16T08:08:44;16.80;99.90
15044;DHT22;7619;48.562;8.910;2022-10-16T08:11:13;17.00;99.90
15044;DHT22;7619;48.562;8.910;2022-10-16T08:13:42;17.10;99.90
15044;DHT22;7619;48.562;8.910;2022-10-16T08:16:11;17.10;99.90
15044;DHT22;7619;48.562;8.910;2022-10-16T08:18:41;17.30;99.90
15044;DHT22;7619;48.562;8.910;2022-10-16T08:23:50;17.60;99.90
15044;DHT22;7619;48.562;8.910;2022-10-16T08:26:19;17.80;99.90
15044;DHT22;7619;48.562;8.910;2022-10-16T08:28:50;17.70;99.90
15044;DHT22;7619;48.562;8.910;2022-10-16T08:31:20;17.70;99.90
15044;DHT22;7619;48.562;8.910;2022-10-16T08:33:49;17.80;99.90
15044;DHT22;7619;48.562;8.910;2022-10-16T08:36:19;17.70;99.90
15044;DHT22;7619;48.562;8.910;2022-10-16T08:38:49;17.70;99.90
15044;DHT22;7619;48.562;8.910;2022-10-16T08:44:37;17.60;99.90
15044;DHT22;7619;48.562;8.910;2022-10-16T08:47:11;17.60;99.90
15044;DHT22;7619;48.562;8.910;2022-10-16T08:52:12;17.70;99.90
15044;DHT22;7619;48.562;8.910;2022-10-16T08:54:44;17.80;99.90
15044;DHT22;7619;48.562;8.910;2022-10-16T08:57:16;17.90;99.90
15044;DHT22;7619;48.562;8.910;2022-10-16T08:59:46;18.00;99.90
15044;DHT22;7619;48.562;8.910;2022-10-16T09:02:23;18.00;99.90
15044;DHT22;7619;48.562;8.910;2022-10-16T09:05:02;18.20;99.90
15044;DHT22;7619;48.562;8.910;2022-10-16T09:07:35;18.40;99.90
15044;DHT22;7619;48.562;8.910;2022-10-16T09:10:17;18.50;99.90
15044;DHT22;7619;48.562;8.910;2022-10-16T09:12:51;18.60;99.90
15044;DHT22;7619;48.562;8.910;2022-10-16T09:15:26;18.60;99.90
15044;DHT22;7619;48.562;8.910;2022-10-16T09:17:59;18.80;99.90
15044;DHT22;7619;48.562;8.910;2022-10-16T09:20:33;18.90;99.90
15044;DHT22;7619;48.562;8.910;2022-10-16T09:23:15;19.60;99.90
15044;DHT22;7619;48.562;8.910;2022-10-16T09:25:46;19.60;99.90
15044;DHT22;7619;48.562;8.910;2022-10-16T09:28:18;20.40;99.90
15044;DHT22;7619;48.562;8.910;2022-10-16T09:30:47;20.90;1.00
15044;DHT22;7619;48.562;8.910;2022-10-16T09:33:19;20.80;99.90
15044;DHT22;7619;48.562;8.910;2022-10-16T09:35:50;20.60;1.00
15044;DHT22;7619;48.562;8.910;2022-10-16T09:38:28;21.00;99.90
15044;DHT22;7619;48.562;8.910;2022-10-16T09:40:57;22.00;99.90
15044;DHT22;7619;48.562;8.910;2022-10-16T09:46:04;22.30;1.00
15044;DHT22;7619;48.562;8.910;2022-10-16T09:48:37;22.70;1.00
15044;DHT22;7619;48.562;8.910;2022-10-16T09:51:16;22.70;99.90
15044;DHT22;7619;48.562;8.910;2022-10-16T09:53:47;22.70;1.00
15044;DHT22;7619;48.562;8.910;2022-10-16T09:56:24;22.80;1.00
15044;DHT22;7619;48.562;8.910;2022-10-16T09:58:54;23.00;99.90
15044;DHT22;7619;48.562;8.910;2022-10-16T10:01:26;23.40;1.00
15044;DHT22;7619;48.562;8.910;2022-10-16T10:03:57;23.30;1.00
15044;DHT22;7619;48.562;8.910;2022-10-16T10:06:30;22.50;1.00
15044;DHT22;7619;48.562;8.910;2022-10-16T10:09:03;21.90;1.00
15044;DHT22;7619;48.562;8.910;2022-10-16T10:11:53;21.60;99.90
15044;DHT22;7619;48.562;8.910;2022-10-16T10:14:25;21.50;1.00
15044;DHT22;7619;48.562;8.910;2022-10-16T10:17:11;21.30;1.00
15044;DHT22;7619;48.562;8.910;2022-10-16T10:19:44;21.30;1.00
15044;DHT22;7619;48.562;8.910;2022-10-16T10:22:32;21.60;1.00
15044;DHT22;7619;48.562;8.910;2022-10-16T10:28:35;22.70;1.00
15044;DHT22;7619;48.562;8.910;2022-10-16T10:31:08;23.50;1.00
15044;DHT22;7619;48.562;8.910;2022-10-16T10:33:43;24.30;1.00
15044;DHT22;7619;48.562;8.910;2022-10-16T10:39:06;24.60;99.90
15044;DHT22;7619;48.562;8.910;2022-10-16T10:41:59;24.10;99.90
15044;DHT22;7619;48.562;8.910;2022-10-16T10:47:16;24.60;99.90
15044;DHT22;7619;48.562;8.910;2022-10-16T10:49:51;24.50;99.90
15044;DHT22;7619;48.562;8.910;2022-10-16T10:52:30;23.60;99.90
15044;DHT22;7619;48.562;8.910;2022-10-16T10:55:22;22.70;77.00
15044;DHT22;7619;48.562;8.910;2022-10-16T10:58:06;22.20;1.00
15044;DHT22;7619;48.562;8.910;2022-10-16T11:00:42;22.20;1.00
15044;DHT22;7619;48.562;8.910;2022-10-16T11:11:04;23.30;76.80
15044;DHT22;7619;48.562;8.910;2022-10-16T11:16:13;23.90;99.90
15044;DHT22;7619;48.562;8.910;2022-10-16T11:18:47;24.00;99.90
15044;DHT22;7619;48.562;8.910;2022-10-16T11:21:19;24.40;99.90
15044;DHT22;7619;48.562;8.910;2022-10-16T11:23:53;25.00;99.90
15044;DHT22;7619;48.562;8.910;2022-10-16T11:26:24;25.20;99.90
15044;DHT22;7619;48.562;8.910;2022-10-16T11:28:55;25.30;99.90
15044;DHT22;7619;48.562;8.910;2022-10-16T11:31:32;25.20;99.90
15044;DHT22;7619;48.562;8.910;2022-10-16T11:34:05;25.40;99.90
15044;DHT22;7619;48.562;8.910;2022-10-16T11:39:21;25.50;99.90
15044;DHT22;7619;48.562;8.910;2022-10-16T11:41:52;25.00;99.90
15044;DHT22;7619;48.562;8.910;2022-10-16T11:44:46;24.50;99.90
15044;DHT22;7619;48.562;8.910;2022-10-16T11:50:09;24.30;75.70
15044;DHT22;7619;48.562;8.910;2022-10-16T11:52:42;24.40;78.00
15044;DHT22;7619;48.562;8.910;2022-10-16T11:55:17;24.50;90.50
15044;DHT22;7619;48.562;8.910;2022-10-16T11:57:49;24.40;89.80
15044;DHT22;7619;48.562;8.910;2022-10-16T12:00:23;24.00;99.90
15044;DHT22;7619;48.562;8.910;2022-10-16T12:02:58;23.50;53.90
15044;DHT22;7619;48.562;8.910;2022-10-16T12:08:12;23.20;39.80
15044;DHT22;7619;48.562;8.910;2022-10-16T12:10:43;23.20;28.20
15044;DHT22;7619;48.562;8.910;2022-10-16T12:13:30;23.20;1.00
15044;DHT22;7619;48.562;8.910;2022-10-16T12:16:19;23.20;21.00
15044;DHT22;7619;48.562;8.910;2022-10-16T12:18:39;23.30;10.90
15044;DHT22;7619;48.562;8.910;2022-10-16T12:21:09;23.30;43.10
15044;DHT22;7619;48.562;8.910;2022-10-16T12:23:47;23.20;12.20
15044;DHT22;7619;48.562;8.910;2022-10-16T12:26:25;23.30;82.20
15044;DHT22;7619;48.562;8.910;2022-10-16T12:28:55;23.20;47.40
15044;DHT22;7619;48.562;8.910;2022-10-16T12:31:35;23.00;36.70
15044;DHT22;7619;48.562;8.910;2022-10-16T12:34:05;23.00;26.50
15044;DHT22;7619;48.562;8.910;2022-10-16T12:36:35;23.20;20.00
15044;DHT22;7619;48.562;8.910;2022-10-16T12:39:04;23.70;16.90
15044;DHT22;7619;48.562;8.910;2022-10-16T12:41:34;24.50;88.70
15044;DHT22;7619;48.562;8.910;2022-10-16T12:44:20;25.00;99.90
15044;DHT22;7619;48.562;8.910;2022-10-16T12:46:38;25.20;99.90
15044;DHT22;7619;48.562;8.910;2022-10-16T12:49:21;25.20;99.90
15044;DHT22;7619;48.562;8.910;2022-10-16T12:51:52;25.30;99.90
15044;DHT22;7619;48.562;8.910;2022-10-16T12:54:25;25.30;99.90
15044;DHT22;7619;48.562;8.910;2022-10-16T12:57:06;25.40;99.90
15044;DHT22;7619;48.562;8.910;2022-10-16T13:08:19;25.50;99.90
15044;DHT22;7619;48.562;8.910;2022-10-16T13:10:53;25.40;99.90
15044;DHT22;7619;48.562;8.910;2022-10-16T13:13:37;25.40;91.10
15044;DHT22;7619;48.562;8.910;2022-10-16T13:16:14;25.20;99.90
15044;DHT22;7619;48.562;8.910;2022-10-16T13:18:51;25.30;99.90
15044;DHT22;7619;48.562;8.910;2022-10-16T13:24:16;25.70;99.90
15044;DHT22;7619;48.562;8.910;2022-10-16T13:26:49;25.30;99.90
15044;DHT22;7619;48.562;8.910;2022-10-16T13:29:19;24.70;99.90
15044;DHT22;7619;48.562;8.910;2022-10-16T13:31:49;24.30;99.90
15044;DHT22;7619;48.562;8.910;2022-10-16T13:34:20;24.00;99.70
15044;DHT22;7619;48.562;8.910;2022-10-16T13:36:51;23.80;97.50
15044;DHT22;7619;48.562;8.910;2022-10-16T13:39:24;23.60;84.60
15044;DHT22;7619;48.562;8.910;2022-10-16T13:42:03;23.40;74.50
15044;DHT22;7619;48.562;8.910;2022-10-16T13:47:16;23.30;60.30
15044;DHT22;7619;48.562;8.910;2022-10-16T13:49:46;23.30;66.70
15044;DHT22;7619;48.562;8.910;2022-10-16T13:52:20;23.40;79.20
15044;DHT22;7619;48.562;8.910;2022-10-16T13:54:50;23.40;60.50
15044;DHT22;7619;48.562;8.910;2022-10-16T13:57:22;23.50;57.90
15044;DHT22;7619;48.562;8.910;2022-10-16T13:59:52;23.50;42.90
15044;DHT22;7619;48.562;8.910;2022-10-16T14:02:25;23.60;25.90
15044;DHT22;7619;48.562;8.910;2022-10-16T14:04:54;23.60;12.70
15044;DHT22;7619;48.562;8.910;2022-10-16T14:07:26;23.60;21.50
15044;DHT22;7619;48.562;8.910;2022-10-16T14:09:56;23.70;45.40
15044;DHT22;7619;48.562;8.910;2022-10-16T14:15:15;24.00;36.40
15044;DHT22;7619;48.562;8.910;2022-10-16T14:17:48;24.20;52.00
15044;DHT22;7619;48.562;8.910;2022-10-16T14:20:13;24.30;33.20
15044;DHT22;7619;48.562;8.910;2022-10-16T14:22:43;24.50;52.20
15044;DHT22;7619;48.562;8.910;2022-10-16T14:25:26;24.50;53.70
15044;DHT22;7619;48.562;8.910;2022-10-16T14:28:00;24.50;24.10
15044;DHT22;7619;48.562;8.910;2022-10-16T14:30:33;24.40;42.40
15044;DHT22;7619;48.562;8.910;2022-10-16T14:35:40;24.30;97.20
15044;DHT22;7619;48.562;8.910;2022-10-16T14:38:18;24.30;64.50
15044;DHT22;7619;48.562;8.910;2022-10-16T14:40:49;24.20;29.20
15044;DHT22;7619;48.562;8.910;2022-10-16T14:43:21;24.20;22.20
15044;DHT22;7619;48.562;8.910;2022-10-16T14:45:54;24.20;54.60
15044;DHT22;7619;48.562;8.910;2022-10-16T14:48:24;24.20;49.10
15044;DHT22;7619;48.562;8.910;2022-10-16T14:50:54;24.00;58.80
15044;DHT22;7619;48.562;8.910;2022-10-16T14:53:23;24.00;49.80
15044;DHT22;7619;48.562;8.910;2022-10-16T14:55:52;23.90;38.90
15044;DHT22;7619;48.562;8.910;2022-10-16T15:00:58;24.00;41.60
15044;DHT22;7619;48.562;8.910;2022-10-16T15:03:27;23.90;26.50
15044;DHT22;7619;48.562;8.910;2022-10-16T15:05:56;23.80;22.10
15044;DHT22;7619;48.562;8.910;2022-10-16T15:08:26;23.50;9.50
15044;DHT22;7619;48.562;8.910;2022-10-16T15:10:54;23.40;1.00
15044;DHT22;7619;48.562;8.910;2022-10-16T15:13:23;23.20;1.00
15044;DHT22;7619;48.562;8.910;2022-10-16T15:15:54;23.20;1.00
15044;DHT22;7619;48.562;8.910;2022-10-16T15:18:23;23.00;1.00
15044;DHT22;7619;48.562;8.910;2022-10-16T15:20:52;23.00;1.00
15044;DHT22;7619;48.562;8.910;2022-10-16T15:23:22;22.80;1.00
15044;DHT22;7619;48.562;8.910;2022-10-16T15:25:52;22.90;1.00
15044;DHT22;7619;48.562;8.910;2022-10-16T15:28:23;22.80;1.00
15044;DHT22;7619;48.562;8.910;2022-10-16T15:30:54;22.70;1.00
15044;DHT22;7619;48.562;8.910;2022-10-16T15:33:24;22.70;1.00
15044;DHT22;7619;48.562;8.910;2022-10-16T15:35:55;22.50;1.00
15044;DHT22;7619;48.562;8.910;2022-10-16T15:38:26;22.40;1.00
15044;DHT22;7619;48.562;8.910;2022-10-16T15:40:55;22.40;1.00
15044;DHT22;7619;48.562;8.910;2022-10-16T15:43:24;22.30;1.00
15044;DHT22;7619;48.562;8.910;2022-10-16T15:48:30;22.10;1.00
15044;DHT22;7619;48.562;8.910;2022-10-16T15:51:00;22.00;1.00
15044;DHT22;7619;48.562;8.910;2022-10-16T15:53:29;21.90;1.00
15044;DHT22;7619;48.562;8.910;2022-10-16T15:55:58;21.70;1.00
15044;DHT22;7619;48.562;8.910;2022-10-16T15:58:29;21.60;1.00
15044;DHT22;7619;48.562;8.910;2022-10-16T16:00:59;21.40;1.00
15044;DHT22;7619;48.562;8.910;2022-10-16T16:03:29;21.30;1.00
15044;DHT22;7619;48.562;8.910;2022-10-16T16:06:03;21.20;9.80
15044;DHT22;7619;48.562;8.910;2022-10-16T16:08:29;21.10;99.90
15044;DHT22;7619;48.562;8.910;2022-10-16T16:10:59;20.90;99.90
15044;DHT22;7619;48.562;8.910;2022-10-16T16:13:28;20.70;99.90
15044;DHT22;7619;48.562;8.910;2022-10-16T16:15:57;20.60;99.90
15044;DHT22;7619;48.562;8.910;2022-10-16T16:18:26;20.50;1.00
15044;DHT22;7619;48.562;8.910;2022-10-16T16:20:56;20.40;1.00
15044;DHT22;7619;48.562;8.910;2022-10-16T16:23:25;20.20;1.00
15044;DHT22;7619;48.562;8.910;2022-10-16T16:26:07;20.10;1.00
15044;DHT22;7619;48.562;8.910;2022-10-16T16:28:37;20.00;1.20
15044;DHT22;7619;48.562;8.910;2022-10-16T16:31:07;19.90;99.90
15044;DHT22;7619;48.562;8.910;2022-10-16T16:33:35;19.80;99.90
15044;DHT22;7619;48.562;8.910;2022-10-16T16:36:06;19.60;1.00
15044;DHT22;7619;48.562;8.910;2022-10-16T16:38:35;19.50;1.00
15044;DHT22;7619;48.562;8.910;2022-10-16T16:41:13;19.40;1.00
15044;DHT22;7619;48.562;8.910;2022-10-16T16:43:42;19.30;36.10
15044;DHT22;7619;48.562;8.910;2022-10-16T16:48:48;19.20;1.00
15044;DHT22;7619;48.562;8.910;2022-10-16T16:51:18;19.20;99.90
15044;DHT22;7619;48.562;8.910;2022-10-16T16:53:50;19.10;1.00
15044;DHT22;7619;48.562;8.910;2022-10-16T16:56:20;19.00;1.00
15044;DHT22;7619;48.562;8.910;2022-10-16T16:58:51;19.00;1.00
15044;DHT22;7619;48.562;8.910;2022-10-16T17:01:21;18.90;1.00
15044;DHT22;7619;48.562;8.910;2022-10-16T17:03:52;18.80;1.00
15044;DHT22;7619;48.562;8.910;2022-10-16T17:06:23;18.70;1.00
15044;DHT22;7619;48.562;8.910;2022-10-16T17:08:52;18.60;99.90
15044;DHT22;7619;48.562;8.910;2022-10-16T17:11:24;18.40;99.90
15044;DHT22;7619;48.562;8.910;2022-10-16T17:13:55;18.30;99.90
15044;DHT22;7619;48.562;8.910;2022-10-16T17:16:26;18.10;1.00
15044;DHT22;7619;48.562;8.910;2022-10-16T17:18:58;18.00;68.50
15044;DHT22;7619;48.562;8.910;2022-10-16T17:21:27;17.90;99.90
15044;DHT22;7619;48.562;8.910;2022-10-16T17:23:57;17.80;1.00
15044;DHT22;7619;48.562;8.910;2022-10-16T17:26:26;17.70;1.00
15044;DHT22;7619;48.562;8.910;2022-10-16T17:28:57;17.60;1.00
15044;DHT22;7619;48.562;8.910;2022-10-16T17:31:29;17.50;1.00
15044;DHT22;7619;48.562;8.910;2022-10-16T17:33:59;17.40;99.90
15044;DHT22;7619;48.562;8.910;2022-10-16T17:36:31;17.30;99.90
15044;DHT22;7619;48.562;8.910;2022-10-16T17:39:01;17.20;99.90
15044;DHT22;7619;48.562;8.910;2022-10-16T17:41:32;17.10;99.90
15044;DHT22;7619;48.562;8.910;2022-10-16T17:44:02;16.90;99.90
15044;DHT22;7619;48.562;8.910;2022-10-16T17:46:31;16.90;99.90
15044;DHT22;7619;48.562;8.910;2022-10-16T17:49:01;16.70;99.90
15044;DHT22;7619;48.562;8.910;2022-10-16T17:51:31;16.70;99.90
15044;DHT22;7619;48.562;8.910;2022-10-16T17:54:01;16.60;99.90
15044;DHT22;7619;48.562;8.910;2022-10-16T17:56:31;16.60;99.90